Albion, NY (14411)

11:16 PM EDT on May 22, 2015 (GMT -0400)
Orleans Poverty Hill Farms | | Change Station
CLOSE
Current Station
Personal Weather Station
Location: Albion, NY
Elevation: 597 ft
Nearby Weather Stations
Active Advisory: Frost Advisory

Elev 597 ft 43.22 °N, 78.24 °W | Updated 2 minutes ago

Clear
Clear
41.9 °F
Feels Like 42 °F
N
3.0
Wind Variable Wind from NNW
Gusts 18.0 mph

Today
High -- | Low -- °F
--% Chance of Precip.
Yesterday
High -- | Low -- °F
Precip. -- in
5:42 AM 8:36 PM
Waxing Crescent, 26% visible
Pressure 30.32 in
Visibility 10.0 miles
Clouds Clear
Windchill 42 °F
Dew Point 31 °F
Humidity 66%
Rainfall 0.00 in
Snow Depth Not available.
UV 0 out of 12
Pollen 9.20 out of 12
Air Quality Not available.
Flu Activity Widespread
METAR KROC 230254Z 30006KT 10SM CLR 06/M03 A3030 RMK AO2 SLP265 T00611028 53035

More Conditions Fewer Conditions

Pressure 30.32 in
Visibility 10.0 miles
Clouds Clear
Windchill 42 °F
Dew Point 31 °F
Humidity 66%
Rainfall 0.00 in
Snow Depth Not available.
UV 0 out of 12
Pollen 9.20 out of 12
Air Quality Not available.
Flu Activity Widespread
METAR KROC 230254Z 30006KT 10SM CLR 06/M03 A3030 RMK AO2 SLP265 T00611028 53035

More Conditions Fewer Conditions

10-Day Weather Forecast

Almanac

Astronomy

May. 22, 2015 Rise Set
Actual Time
Civil Twilight
Nautical Twilight
Astronomical Twilight
Moon
Length of Visible Light
Length of Day
Tomorrow will be .
, % of the Moon is Illuminated

Today's Extremes

State Highs State Lows

Community

WunderPhotos

Upload Photos

1,823,375 photos uploaded!

WunderBlogs® & News

Nearby

Air Quality

  Air Quality AQ Index Pollutant
Not available.

Snow Depth

Station Depth Elevation

Earthquake Activity

City Distance Mag. Time & Date
Minimum magnitude displayed is 2.5.

Coastal Water Temperatures

Place Temperature

Stations

Nearby Weather Stations

Station Location Temp. Windchill Dew Point Humidity Wind Precip. Elev Updated Type
                   
Frost Advisory
Statement as of 10:48 PM EDT on May 22, 2015

... Frost advisory remains in effect until 9 am EDT Saturday...

* locations... Niagara... Orleans... Monroe... Wayne... northern
Erie... Genesee... and Ontario counties.

* Timing... from midnight tonight through late Saturday morning.

* Temperatures... in the mid 30s.

* Impacts... areas of frost will result in damage to tender
vegetation unless protective measures are taken.

Precautionary/preparedness actions...

A frost advisory is issued when frost is expected to develop
during the growing season. If you are in the advisory area you
should take steps to protect tender vegetation. Also... potted
plants normally left outdoors should be covered or brought inside
away from the cold.